Weather at Casarsa della Delizia Air Base

Public forecast

Using degrees Celsius for public forecast. Weather courtesy of forecast.io.

Closest aviation weather report (METAR) to Casarsa della Delizia Air Base

Report is more than 6 hours old.

Closest report is Rivolto Air Base, 9.8 nm (18.2 km) E. Retrieved 2020/09/22 15:55 UTC (8 hours ago):

LIPI 221555Z 10009KT 9999 TS FEW015 FEW025CB SCT030 21/16 Q1013 RMK BKN VIS MIN 9999 WIND THR06 13009KT WIND THR24 13009KT BLU

Closest aviation forecast (TAF) to Casarsa della Delizia Air Base

Forecast is more than 12 hours old.

Closest forecast is Rivolto Air Base, 9.8 nm (18.2 km) E. Retrieved 2020/01/23 12:24 UTC (8 months ago):

TAF TAF LIPI 231100Z 2312/2324 06010KT CAVOK